createdAt,value
2018-07-20T00:02:37.392Z,19.59
2018-07-20T00:05:12.975Z,19.90
2018-07-20T00:07:49.219Z,19.26
2018-07-20T00:10:25.671Z,19.26
2018-07-20T00:13:05.449Z,19.25
2018-07-20T00:15:41.540Z,19.19
2018-07-20T00:18:22.145Z,19.77
2018-07-20T00:20:57.179Z,19.36
2018-07-20T00:23:36.120Z,19.11
2018-07-20T00:26:14.325Z,19.07
2018-07-20T00:28:53.319Z,19.04
2018-07-20T00:31:29.362Z,18.96
2018-07-20T00:34:04.002Z,18.92
2018-07-20T00:36:43.573Z,18.91
2018-07-20T00:39:21.250Z,18.86
2018-07-20T00:41:58.353Z,18.81
2018-07-20T00:44:35.136Z,18.75
2018-07-20T00:47:11.173Z,18.72
2018-07-20T00:49:49.505Z,18.66
2018-07-20T00:52:32.995Z,18.65
2018-07-20T00:55:15.805Z,18.62
2018-07-20T00:57:51.416Z,18.60
2018-07-20T01:00:26.235Z,18.56
2018-07-20T01:03:02.741Z,18.56
2018-07-20T01:05:41.629Z,18.60
2018-07-20T01:08:19.426Z,18.61
2018-07-20T01:10:52.827Z,18.68
2018-07-20T01:13:34.203Z,18.67
2018-07-20T01:16:36.804Z,18.69
2018-07-20T01:19:15.098Z,18.72
2018-07-20T01:21:50.950Z,18.76
2018-07-20T01:24:25.859Z,18.85
2018-07-20T01:27:03.385Z,18.96
2018-07-20T01:29:44.258Z,18.89
2018-07-20T01:32:22.546Z,18.79
2018-07-20T01:35:17.216Z,18.68
2018-07-20T01:40:42.744Z,18.60
2018-07-20T01:43:21.608Z,18.51
2018-07-20T01:46:02.482Z,18.33
2018-07-20T01:48:42.199Z,18.33
2018-07-20T01:51:18.017Z,18.27
2018-07-20T01:53:53.830Z,18.20
2018-07-20T01:56:43.610Z,18.13
2018-07-20T02:02:00.951Z,18.07
2018-07-20T02:04:36.126Z,18.18
2018-07-20T02:07:24.053Z,18.43
2018-07-20T02:10:02.779Z,18.58
2018-07-20T02:12:37.706Z,18.71
2018-07-20T02:15:12.539Z,18.83
2018-07-20T02:17:46.464Z,18.86
2018-07-20T02:20:24.012Z,18.89
2018-07-20T02:23:02.937Z,18.95
2018-07-20T02:25:46.160Z,19.10
2018-07-20T02:28:22.324Z,19.19
2018-07-20T02:31:11.234Z,19.14
2018-07-20T02:33:46.116Z,19.04
2018-07-20T02:36:26.199Z,18.95
2018-07-20T02:39:01.815Z,18.84
2018-07-20T02:44:22.458Z,18.83
2018-07-20T02:47:04.543Z,18.83
2018-07-20T02:49:41.169Z,18.65
2018-07-20T02:52:18.610Z,18.47
2018-07-20T02:54:55.913Z,18.37
2018-07-20T02:57:30.682Z,18.41
2018-07-20T03:00:08.585Z,18.47
2018-07-20T03:02:42.775Z,18.50
2018-07-20T03:05:11.601Z,18.56
2018-07-20T03:07:40.171Z,18.56
2018-07-20T03:10:08.804Z,18.61
2018-07-20T03:12:37.445Z,18.51
2018-07-20T03:15:06.247Z,18.50
2018-07-20T03:17:34.835Z,18.63
2018-07-20T03:20:03.462Z,18.67
2018-07-20T03:22:32.056Z,18.66
2018-07-20T03:25:00.778Z,18.61
2018-07-20T03:27:29.454Z,18.58
2018-07-20T03:29:58.286Z,18.60
2018-07-20T03:32:26.961Z,18.60
2018-07-20T03:34:55.566Z,18.73
2018-07-20T03:37:24.314Z,18.74
2018-07-20T03:39:52.824Z,18.70
2018-07-20T03:42:21.565Z,18.79
2018-07-20T03:44:50.199Z,19.01
2018-07-20T03:47:18.772Z,18.87
2018-07-20T03:49:47.530Z,18.94
2018-07-20T03:52:16.218Z,18.95
2018-07-20T03:54:45.092Z,19.07
2018-07-20T03:57:14.176Z,19.26
2018-07-20T03:59:42.767Z,19.33
2018-07-20T04:02:11.414Z,19.30
2018-07-20T04:04:39.997Z,19.39
2018-07-20T04:07:08.697Z,19.35
2018-07-20T04:09:37.288Z,19.47
2018-07-20T04:12:05.803Z,19.51
2018-07-20T04:14:34.333Z,19.49
2018-07-20T04:17:02.844Z,19.27
2018-07-20T04:19:31.519Z,19.05
2018-07-20T04:22:00.110Z,19.11
2018-07-20T04:24:28.677Z,19.20
2018-07-20T04:26:57.229Z,19.37
2018-07-20T04:29:25.877Z,19.42
2018-07-20T04:31:54.646Z,19.52
2018-07-20T04:34:23.375Z,19.40
2018-07-20T04:36:52.013Z,19.45
2018-07-20T04:39:20.606Z,19.45
2018-07-20T04:41:49.273Z,19.43
2018-07-20T04:44:19.029Z,19.49
2018-07-20T04:46:47.894Z,19.54
2018-07-20T04:49:16.554Z,19.61
2018-07-20T04:51:45.176Z,19.56
2018-07-20T04:54:13.847Z,19.56
2018-07-20T04:56:42.382Z,19.64
2018-07-20T04:59:11.048Z,19.77
2018-07-20T05:01:39.732Z,19.94
2018-07-20T05:04:08.423Z,19.93
2018-07-20T05:06:37.200Z,19.96
2018-07-20T05:09:09.040Z,19.95
2018-07-20T05:11:38.213Z,19.91
2018-07-20T05:14:07.071Z,20.04
2018-07-20T05:16:35.803Z,20.22
2018-07-20T05:19:04.526Z,20.39
2018-07-20T05:21:33.231Z,20.63
2018-07-20T05:24:02.528Z,20.81
2018-07-20T05:26:34.977Z,21.04
2018-07-20T05:29:04.126Z,21.38
2018-07-20T05:31:32.957Z,21.63
2018-07-20T05:34:01.759Z,21.76
2018-07-20T05:36:30.503Z,21.73
2018-07-20T05:38:59.275Z,21.77
2018-07-20T05:41:28.099Z,21.88
2018-07-20T05:43:56.759Z,21.72
2018-07-20T05:46:25.416Z,21.89
2018-07-20T05:48:54.182Z,21.89
2018-07-20T05:51:22.872Z,21.97
2018-07-20T05:53:51.984Z,22.03
2018-07-20T05:56:21.142Z,22.08
2018-07-20T05:58:50.034Z,22.15
2018-07-20T06:01:18.697Z,22.07
2018-07-20T06:03:47.378Z,22.04
2018-07-20T06:06:16.040Z,22.23
2018-07-20T06:08:45.039Z,22.28
2018-07-20T06:11:13.645Z,22.38
2018-07-20T06:13:42.300Z,22.78
2018-07-20T06:16:11.136Z,23.02
2018-07-20T06:18:39.959Z,23.49
2018-07-20T06:21:08.787Z,23.64
2018-07-20T06:23:37.940Z,23.94
2018-07-20T06:26:07.124Z,24.42
2018-07-20T06:28:36.186Z,24.52
2018-07-20T06:31:05.035Z,25.19
2018-07-20T06:33:33.767Z,25.60
2018-07-20T06:36:02.375Z,25.91
2018-07-20T06:38:31.234Z,26.17
2018-07-20T06:40:59.996Z,26.10
2018-07-20T06:43:28.658Z,26.47
2018-07-20T06:45:57.259Z,26.95
2018-07-20T06:48:26.325Z,27.41
2018-07-20T06:50:55.336Z,27.06
2018-07-20T06:53:24.565Z,27.12
2018-07-20T06:55:53.475Z,26.82
2018-07-20T06:58:22.210Z,26.73
2018-07-20T07:00:53.293Z,26.78
2018-07-20T07:03:25.925Z,26.54
2018-07-20T07:05:55.026Z,26.49
2018-07-20T07:08:25.079Z,26.35
2018-07-20T07:10:53.664Z,26.10
2018-07-20T07:13:28.674Z,25.92
2018-07-20T07:16:00.612Z,25.53
2018-07-20T07:18:40.353Z,25.66
2018-07-20T07:21:13.182Z,25.80
2018-07-20T07:23:49.429Z,25.51
2018-07-20T07:26:23.564Z,25.67
2018-07-20T07:29:02.417Z,26.00
2018-07-20T07:31:36.380Z,25.95
2018-07-20T07:34:08.807Z,25.97
2018-07-20T07:36:39.631Z,25.97
2018-07-20T07:39:13.453Z,26.13
2018-07-20T07:41:46.849Z,26.62
2018-07-20T07:44:23.881Z,26.52
2018-07-20T07:46:55.431Z,26.55
2018-07-20T07:49:28.327Z,26.51
2018-07-20T07:52:02.150Z,26.83
2018-07-20T07:54:37.583Z,27.02
2018-07-20T07:57:15.737Z,26.70
2018-07-20T08:00:14.984Z,27.12
2018-07-20T08:03:10.630Z,27.19
2018-07-20T08:05:41.103Z,27.23
2018-07-20T08:08:09.653Z,27.02
2018-07-20T08:10:38.504Z,27.20
2018-07-20T08:13:07.294Z,27.36
2018-07-20T08:15:36.039Z,27.50
2018-07-20T08:18:04.755Z,27.30
2018-07-20T08:20:33.629Z,27.35
2018-07-20T08:23:02.479Z,27.62
2018-07-20T08:25:31.021Z,27.97
2018-07-20T08:27:59.747Z,28.07
2018-07-20T08:30:28.604Z,28.17
2018-07-20T08:32:57.710Z,28.22
2018-07-20T08:35:26.426Z,28.06
2018-07-20T08:37:54.856Z,28.24
2018-07-20T08:40:23.543Z,28.36
2018-07-20T08:42:52.153Z,28.48
2018-07-20T08:45:20.741Z,28.35
2018-07-20T08:47:49.440Z,28.13
2018-07-20T08:50:18.032Z,27.88
2018-07-20T08:52:46.797Z,28.38
2018-07-20T08:55:15.440Z,28.68
2018-07-20T08:57:44.011Z,28.73
2018-07-20T09:00:12.703Z,29.00
2018-07-20T09:02:41.293Z,29.10
2018-07-20T09:05:09.957Z,29.16
2018-07-20T09:07:38.634Z,29.27
2018-07-20T09:10:07.244Z,29.32
2018-07-20T09:12:35.855Z,29.34
2018-07-20T09:15:04.780Z,29.39
2018-07-20T09:17:33.374Z,29.67
2018-07-20T09:20:01.923Z,29.77
2018-07-20T09:22:30.610Z,29.92
2018-07-20T09:24:59.264Z,29.77
2018-07-20T09:27:28.097Z,30.01
2018-07-20T09:29:56.646Z,30.13
2018-07-20T09:32:25.221Z,29.96
2018-07-20T09:34:53.995Z,29.77
2018-07-20T09:37:22.571Z,30.02
2018-07-20T09:39:51.131Z,30.19
2018-07-20T09:42:19.818Z,30.46
2018-07-20T09:44:48.487Z,30.23
2018-07-20T09:47:17.033Z,30.50
2018-07-20T09:49:45.669Z,30.86
2018-07-20T09:52:14.395Z,31.11
2018-07-20T09:54:43.110Z,31.55
2018-07-20T09:57:11.839Z,31.55
2018-07-20T09:59:40.457Z,31.80
2018-07-20T10:02:09.022Z,31.89
2018-07-20T10:04:37.761Z,32.03
2018-07-20T10:07:06.320Z,31.98
2018-07-20T10:09:36.176Z,31.97
2018-07-20T10:12:04.858Z,31.71
2018-07-20T10:14:33.349Z,31.74
2018-07-20T10:17:01.994Z,31.37
2018-07-20T10:19:30.642Z,31.74
2018-07-20T10:21:59.328Z,31.73
2018-07-20T10:24:27.856Z,31.77
2018-07-20T10:26:56.539Z,31.67
2018-07-20T10:29:28.533Z,32.24
2018-07-20T10:32:33.090Z,32.16
2018-07-20T10:35:02.709Z,31.42
2018-07-20T10:37:31.284Z,31.58
2018-07-20T10:39:59.962Z,31.38
2018-07-20T10:42:28.507Z,32.00
2018-07-20T10:44:57.055Z,32.28
2018-07-20T10:47:25.690Z,32.43
2018-07-20T10:49:54.396Z,32.68
2018-07-20T10:52:22.995Z,32.80
2018-07-20T10:54:51.648Z,32.55
2018-07-20T10:57:20.480Z,32.78
2018-07-20T10:59:49.289Z,31.67
2018-07-20T11:02:19.169Z,32.63
2018-07-20T11:04:47.798Z,31.84
2018-07-20T11:07:16.479Z,32.33
2018-07-20T11:09:45.185Z,32.86
2018-07-20T11:12:13.740Z,32.30
2018-07-20T11:14:42.352Z,32.51
2018-07-20T11:17:10.910Z,33.12
2018-07-20T11:19:39.667Z,32.60
2018-07-20T11:22:08.874Z,32.72
2018-07-20T11:24:37.546Z,32.75
2018-07-20T11:27:06.178Z,33.18
2018-07-20T11:29:34.715Z,33.74
2018-07-20T11:32:03.331Z,33.23
2018-07-20T11:34:32.037Z,33.97
2018-07-20T11:37:00.596Z,34.06
2018-07-20T11:39:29.123Z,34.66
2018-07-20T11:41:57.912Z,35.29
2018-07-20T11:44:26.517Z,35.31
2018-07-20T11:46:55.066Z,35.20
2018-07-20T11:49:23.765Z,37.75
2018-07-20T11:51:52.332Z,40.78
2018-07-20T11:54:20.938Z,38.16
2018-07-20T11:56:49.587Z,41.09
2018-07-20T11:59:18.268Z,42.75
2018-07-20T12:01:46.862Z,44.80
2018-07-20T12:04:15.489Z,47.93
2018-07-20T12:06:44.060Z,48.84
2018-07-20T12:09:13.258Z,45.55
2018-07-20T12:11:42.054Z,46.78
2018-07-20T12:14:10.754Z,45.41
2018-07-20T12:16:39.575Z,46.99
2018-07-20T12:19:08.165Z,50.06
2018-07-20T12:21:36.807Z,51.35
2018-07-20T12:24:05.484Z,49.55
2018-07-20T12:26:34.105Z,48.87
2018-07-20T12:29:02.722Z,50.91
2018-07-20T12:31:31.249Z,50.10
2018-07-20T12:33:59.783Z,45.90
2018-07-20T12:36:28.267Z,48.15
2018-07-20T12:38:56.789Z,47.30
2018-07-20T12:41:25.399Z,48.57
2018-07-20T12:43:56.180Z,52.20
2018-07-20T12:46:25.866Z,50.65
2018-07-20T12:48:54.333Z,48.81
2018-07-20T12:51:22.909Z,50.46
2018-07-20T12:53:51.749Z,53.22
2018-07-20T12:56:20.410Z,52.37
2018-07-20T12:58:49.180Z,53.45
2018-07-20T13:01:17.720Z,57.60
2018-07-20T13:03:46.446Z,56.89
2018-07-20T13:06:15.026Z,59.67
2018-07-20T13:08:43.660Z,53.42
2018-07-20T13:11:12.362Z,51.32
2018-07-20T13:13:41.066Z,47.96
2018-07-20T13:16:09.695Z,46.71
2018-07-20T13:18:38.271Z,53.14
2018-07-20T13:21:07.101Z,52.16
2018-07-20T13:23:35.824Z,51.65
2018-07-20T13:26:04.578Z,53.00
2018-07-20T13:28:33.590Z,52.45
2018-07-20T13:31:02.219Z,54.12
2018-07-20T13:33:30.933Z,51.81
2018-07-20T13:35:59.726Z,55.13
2018-07-20T13:38:28.579Z,58.73
2018-07-20T13:40:57.259Z,54.93
2018-07-20T13:43:25.974Z,54.16
2018-07-20T13:45:54.601Z,56.42
2018-07-20T13:48:23.285Z,52.51
2018-07-20T13:50:51.955Z,50.81
2018-07-20T13:53:20.759Z,49.78
2018-07-20T13:55:49.395Z,50.47
2018-07-20T13:58:18.027Z,56.31
2018-07-20T14:00:46.872Z,54.81
2018-07-20T14:03:15.412Z,49.75
2018-07-20T14:05:43.980Z,46.15
2018-07-20T14:08:16.310Z,45.54
2018-07-20T14:10:45.153Z,48.93
2018-07-20T14:13:14.911Z,49.85
2018-07-20T14:15:43.705Z,53.13
2018-07-20T14:18:12.564Z,45.12
2018-07-20T14:20:41.624Z,49.90
2018-07-20T14:23:10.515Z,45.97
2018-07-20T14:25:39.120Z,43.83
2018-07-20T14:28:08.158Z,45.86
2018-07-20T14:30:36.774Z,50.78
2018-07-20T14:33:05.689Z,50.48
2018-07-20T14:35:34.428Z,47.59
2018-07-20T14:38:04.783Z,42.50
2018-07-20T14:40:33.582Z,45.21
2018-07-20T14:43:02.263Z,45.70
2018-07-20T14:45:30.829Z,43.08
2018-07-20T14:47:59.545Z,43.72
2018-07-20T14:50:28.300Z,47.12
2018-07-20T14:52:56.951Z,47.27
2018-07-20T14:55:25.798Z,44.11
2018-07-20T14:57:54.786Z,44.72
2018-07-20T15:00:23.489Z,42.66
2018-07-20T15:02:52.142Z,39.45
2018-07-20T15:05:20.794Z,40.07
2018-07-20T15:07:49.548Z,38.07
2018-07-20T15:10:18.311Z,38.75
2018-07-20T15:12:47.189Z,38.71
2018-07-20T15:15:15.898Z,38.71
2018-07-20T15:17:44.479Z,37.87
2018-07-20T15:20:13.198Z,36.66
2018-07-20T15:22:41.805Z,36.54
2018-07-20T15:25:10.703Z,36.41
2018-07-20T15:27:39.444Z,36.36
2018-07-20T15:30:08.292Z,36.38
2018-07-20T15:32:37.145Z,36.00
2018-07-20T15:35:05.909Z,36.18
2018-07-20T15:37:34.595Z,34.44
2018-07-20T15:40:03.188Z,33.60
2018-07-20T15:42:32.015Z,33.05
2018-07-20T15:45:00.614Z,32.78
2018-07-20T15:47:29.346Z,32.29
2018-07-20T15:49:57.872Z,32.51
2018-07-20T15:54:55.306Z,32.20
2018-07-20T15:57:23.966Z,31.86
2018-07-20T15:59:52.731Z,31.88
2018-07-20T16:02:21.218Z,31.75
2018-07-20T16:04:49.805Z,31.49
2018-07-20T16:07:18.577Z,31.14
2018-07-20T16:09:47.148Z,31.08
2018-07-20T16:12:15.715Z,30.72
2018-07-20T16:14:44.295Z,31.11
2018-07-20T16:17:13.093Z,30.64
2018-07-20T16:19:42.584Z,30.14
2018-07-20T16:22:11.141Z,31.07
2018-07-20T16:24:39.791Z,30.41
2018-07-20T16:27:08.691Z,28.24
2018-07-20T16:29:37.316Z,26.96
2018-07-20T16:32:06.323Z,27.61
2018-07-20T16:34:34.984Z,28.03
2018-07-20T16:37:03.848Z,28.58
2018-07-20T16:39:32.786Z,28.87
2018-07-20T16:42:01.636Z,29.41
2018-07-20T16:44:30.502Z,30.08
2018-07-20T16:46:59.278Z,31.28
2018-07-20T16:49:27.887Z,31.25
2018-07-20T16:51:56.741Z,31.01
2018-07-20T16:54:25.363Z,32.29
2018-07-20T16:56:54.139Z,32.19
2018-07-20T16:59:22.709Z,31.00
2018-07-20T17:01:51.505Z,31.81
2018-07-20T17:04:20.258Z,31.68
2018-07-20T17:06:48.984Z,30.60
2018-07-20T17:09:17.723Z,30.37
2018-07-20T17:11:46.409Z,29.11
2018-07-20T17:14:14.982Z,29.34
2018-07-20T17:16:43.761Z,29.11
2018-07-20T17:19:12.468Z,28.99
2018-07-20T17:21:41.148Z,28.89
2018-07-20T17:24:10.404Z,28.34
2018-07-20T17:26:39.421Z,28.89
2018-07-20T17:29:08.255Z,28.09
2018-07-20T17:31:36.835Z,27.95
2018-07-20T17:34:05.440Z,28.01
2018-07-20T17:36:35.266Z,28.02
2018-07-20T17:39:04.818Z,27.81
2018-07-20T17:41:33.801Z,27.80
2018-07-20T17:44:02.497Z,27.57
2018-07-20T17:46:31.377Z,27.61
2018-07-20T17:49:00.246Z,27.47
2018-07-20T17:51:28.900Z,27.45
2018-07-20T17:53:57.585Z,27.24
2018-07-20T17:56:26.519Z,27.02
2018-07-20T17:58:55.367Z,26.86
2018-07-20T18:01:24.134Z,26.25
2018-07-20T18:03:52.736Z,26.45
2018-07-20T18:06:21.442Z,26.25
2018-07-20T18:08:50.190Z,26.09
2018-07-20T18:11:18.907Z,25.81
2018-07-20T18:13:47.737Z,25.60
2018-07-20T18:16:16.471Z,25.45
2018-07-20T18:18:45.333Z,25.51
2018-07-20T18:21:14.044Z,25.47
2018-07-20T18:23:42.779Z,25.40
2018-07-20T18:26:11.476Z,25.19
2018-07-20T18:28:40.024Z,24.85
2018-07-20T18:31:08.704Z,24.46
2018-07-20T18:33:37.522Z,24.30
2018-07-20T18:36:06.265Z,24.51
2018-07-20T18:38:35.173Z,24.49
2018-07-20T18:41:03.802Z,24.26
2018-07-20T18:43:32.574Z,24.16
2018-07-20T18:46:01.396Z,23.90
2018-07-20T18:48:30.249Z,23.91
2018-07-20T18:50:59.255Z,23.85
2018-07-20T18:53:28.222Z,23.83
2018-07-20T18:55:57.039Z,23.81
2018-07-20T18:58:25.721Z,23.80
2018-07-20T19:00:54.533Z,23.63
2018-07-20T19:03:23.290Z,23.65
2018-07-20T19:05:52.029Z,23.81
2018-07-20T19:08:20.723Z,23.75
2018-07-20T19:10:49.419Z,23.49
2018-07-20T19:13:18.742Z,23.50
2018-07-20T19:15:47.357Z,23.51
2018-07-20T19:18:16.245Z,23.70
2018-07-20T19:20:45.110Z,23.70
2018-07-20T19:23:17.695Z,23.83
2018-07-20T19:25:46.604Z,23.82
2018-07-20T19:28:15.407Z,23.76
2018-07-20T19:30:44.031Z,23.57
2018-07-20T19:33:12.779Z,23.55
2018-07-20T19:35:41.482Z,23.36
2018-07-20T19:38:10.214Z,23.32
2018-07-20T19:40:39.942Z,23.28
2018-07-20T19:44:37.872Z,23.30
2018-07-20T19:47:06.654Z,23.23
2018-07-20T19:49:35.536Z,23.37
2018-07-20T19:52:04.349Z,23.26
2018-07-20T19:54:33.185Z,23.29
2018-07-20T19:57:01.991Z,23.27
2018-07-20T19:59:30.764Z,23.27
2018-07-20T20:01:59.635Z,23.17
2018-07-20T20:04:28.515Z,23.16
2018-07-20T20:06:57.201Z,23.10
2018-07-20T20:09:25.857Z,23.05
2018-07-20T20:11:54.449Z,23.00
2018-07-20T20:14:23.112Z,22.95
2018-07-20T20:16:51.918Z,22.91
2018-07-20T20:19:20.703Z,22.89
2018-07-20T20:21:49.487Z,22.89
2018-07-20T20:24:18.253Z,22.96
2018-07-20T20:26:47.050Z,22.98
2018-07-20T20:29:16.741Z,23.04
2018-07-20T20:31:45.376Z,23.02
2018-07-20T20:34:14.133Z,22.96
2018-07-20T20:36:42.697Z,22.99
2018-07-20T20:39:12.844Z,22.94
2018-07-20T20:41:41.714Z,22.80
2018-07-20T20:44:10.881Z,22.72
2018-07-20T20:46:40.016Z,22.66
2018-07-20T20:49:08.825Z,22.57
2018-07-20T20:51:37.388Z,22.57
2018-07-20T20:54:06.821Z,22.63
2018-07-20T20:56:35.419Z,22.72
2018-07-20T20:59:04.165Z,22.72
2018-07-20T21:01:32.883Z,22.73
2018-07-20T21:04:01.652Z,22.81
2018-07-20T21:06:30.249Z,22.81
2018-07-20T21:08:58.973Z,22.82
2018-07-20T21:11:27.587Z,22.83
2018-07-20T21:13:56.243Z,22.83
2018-07-20T21:16:24.872Z,22.80
2018-07-20T21:18:53.469Z,22.88
2018-07-20T21:21:22.023Z,22.88
2018-07-20T21:23:50.737Z,22.83
2018-07-20T21:26:19.466Z,22.76
2018-07-20T21:28:48.100Z,22.69
2018-07-20T21:31:16.996Z,22.64
2018-07-20T21:33:45.884Z,22.44
2018-07-20T21:36:14.619Z,22.38
2018-07-20T21:38:43.528Z,22.34
2018-07-20T21:41:12.421Z,22.38
2018-07-20T21:43:41.140Z,22.30
2018-07-20T21:46:09.941Z,22.33
2018-07-20T21:48:38.549Z,22.25
2018-07-20T21:51:07.227Z,22.17
2018-07-20T21:53:35.916Z,22.22
2018-07-20T21:56:04.751Z,22.20
2018-07-20T21:58:33.411Z,22.19
2018-07-20T22:01:03.272Z,22.15
2018-07-20T22:03:31.878Z,22.04
2018-07-20T22:06:00.508Z,21.91
2018-07-20T22:08:29.231Z,21.86
2018-07-20T22:10:57.865Z,21.77
2018-07-20T22:13:26.473Z,22.00
2018-07-20T22:15:55.050Z,22.33
2018-07-20T22:18:23.653Z,22.30
2018-07-20T22:20:52.169Z,22.41
2018-07-20T22:23:20.800Z,22.40
2018-07-20T22:25:49.709Z,22.28
2018-07-20T22:28:18.325Z,22.32
2018-07-20T22:30:46.965Z,22.30
2018-07-20T22:33:15.695Z,22.07
2018-07-20T22:35:44.468Z,22.01
2018-07-20T22:38:12.992Z,21.96
2018-07-20T22:40:41.856Z,21.80
2018-07-20T22:43:10.478Z,21.79
2018-07-20T22:45:39.154Z,21.64
2018-07-20T22:48:07.977Z,21.57
2018-07-20T22:50:36.563Z,21.41
2018-07-20T22:53:05.361Z,21.24
2018-07-20T22:55:33.928Z,21.41
2018-07-20T22:58:02.515Z,21.57
2018-07-20T23:00:31.238Z,21.66
2018-07-20T23:03:00.011Z,21.64
2018-07-20T23:05:28.756Z,21.51
2018-07-20T23:07:57.309Z,21.65
2018-07-20T23:10:25.837Z,21.76
2018-07-20T23:12:54.741Z,21.83
2018-07-20T23:15:23.522Z,21.75
2018-07-20T23:17:52.317Z,21.66
2018-07-20T23:20:21.093Z,21.71
2018-07-20T23:22:49.788Z,21.67
2018-07-20T23:25:18.579Z,21.57
2018-07-20T23:27:47.292Z,21.45
2018-07-20T23:30:16.007Z,21.51
2018-07-20T23:32:44.602Z,21.42
2018-07-20T23:35:13.139Z,21.45
2018-07-20T23:37:43.558Z,21.46
2018-07-20T23:40:12.290Z,21.45
2018-07-20T23:42:40.921Z,21.35
2018-07-20T23:45:09.712Z,21.24
2018-07-20T23:47:38.611Z,21.17
2018-07-20T23:50:07.353Z,21.14
2018-07-20T23:52:38.585Z,21.12
2018-07-20T23:55:07.666Z,21.04
2018-07-20T23:57:36.380Z,20.97
